sensor_id;sensor_type;location;lat;lon;timestamp;pressure;altitude;pressure_sealevel;temperature;humidity
50672;BME280;46021;55.882;37.654;2023-03-22T00:01:09;98915.16;;;3.71;76.61
50672;BME280;46021;55.882;37.654;2023-03-22T00:03:41;98913.50;;;3.67;76.90
50672;BME280;46021;55.882;37.654;2023-03-22T00:06:10;98922.25;;;3.57;77.96
50672;BME280;46021;55.882;37.654;2023-03-22T00:08:38;98920.56;;;3.56;77.83
50672;BME280;46021;55.882;37.654;2023-03-22T00:11:06;98918.81;;;3.56;77.73
50672;BME280;46021;55.882;37.654;2023-03-22T00:13:34;98921.44;;;3.53;78.21
50672;BME280;46021;55.882;37.654;2023-03-22T00:16:02;98917.19;;;3.50;77.80
50672;BME280;46021;55.882;37.654;2023-03-22T00:18:30;98916.31;;;3.51;78.31
50672;BME280;46021;55.882;37.654;2023-03-22T00:20:58;98918.94;;;3.48;78.74
50672;BME280;46021;55.882;37.654;2023-03-22T00:23:27;98915.53;;;3.46;77.75
50672;BME280;46021;55.882;37.654;2023-03-22T00:25:55;98927.53;;;3.47;78.04
50672;BME280;46021;55.882;37.654;2023-03-22T00:28:22;98935.25;;;3.49;78.92
50672;BME280;46021;55.882;37.654;2023-03-22T00:30:50;98936.97;;;3.50;78.76
50672;BME280;46021;55.882;37.654;2023-03-22T00:33:18;98929.25;;;3.48;78.16
50672;BME280;46021;55.882;37.654;2023-03-22T00:35:49;98931.88;;;3.45;78.97
50672;BME280;46021;55.882;37.654;2023-03-22T00:38:17;98931.06;;;3.42;78.99
50672;BME280;46021;55.882;37.654;2023-03-22T00:40:45;98937.94;;;3.41;79.32
50672;BME280;46021;55.882;37.654;2023-03-22T00:43:13;98943.94;;;3.40;78.74
50672;BME280;46021;55.882;37.654;2023-03-22T00:45:40;98936.31;;;3.34;79.78
50672;BME280;46021;55.882;37.654;2023-03-22T00:48:08;98953.44;;;3.38;80.15
50672;BME280;46021;55.882;37.654;2023-03-22T00:50:36;98948.38;;;3.32;79.42
50672;BME280;46021;55.882;37.654;2023-03-22T00:53:04;98940.78;;;3.21;79.63
50672;BME280;46021;55.882;37.654;2023-03-22T00:55:32;98951.00;;;3.29;80.19
50672;BME280;46021;55.882;37.654;2023-03-22T00:58:00;98957.81;;;3.35;79.47
50672;BME280;46021;55.882;37.654;2023-03-22T01:00:28;98947.53;;;3.33;79.43
50672;BME280;46021;55.882;37.654;2023-03-22T01:02:56;98951.78;;;3.32;79.34
50672;BME280;46021;55.882;37.654;2023-03-22T01:05:25;98955.25;;;3.33;79.67
50672;BME280;46021;55.882;37.654;2023-03-22T01:07:53;98958.66;;;3.35;79.63
50672;BME280;46021;55.882;37.654;2023-03-22T01:10:21;98960.41;;;3.33;79.37
50672;BME280;46021;55.882;37.654;2023-03-22T01:12:49;98958.75;;;3.29;80.25
50672;BME280;46021;55.882;37.654;2023-03-22T01:15:17;98967.34;;;3.25;79.61
50672;BME280;46021;55.882;37.654;2023-03-22T01:17:45;98967.31;;;3.31;79.59
50672;BME280;46021;55.882;37.654;2023-03-22T01:20:12;98963.91;;;3.29;79.58
50672;BME280;46021;55.882;37.654;2023-03-22T01:22:39;98968.06;;;3.36;79.52
50672;BME280;46021;55.882;37.654;2023-03-22T01:25:07;98956.19;;;3.27;79.49
50672;BME280;46021;55.882;37.654;2023-03-22T01:27:35;98982.75;;;3.31;79.76
50672;BME280;46021;55.882;37.654;2023-03-22T01:30:03;98977.72;;;3.22;79.78
50672;BME280;46021;55.882;37.654;2023-03-22T01:32:32;98984.63;;;3.20;80.44
50672;BME280;46021;55.882;37.654;2023-03-22T01:34:59;98992.28;;;3.23;80.07
50672;BME280;46021;55.882;37.654;2023-03-22T01:37:29;98984.66;;;3.17;80.66
50672;BME280;46021;55.882;37.654;2023-03-22T01:39:57;99001.88;;;3.10;81.97
50672;BME280;46021;55.882;37.654;2023-03-22T01:42:24;99003.59;;;3.11;80.91
50672;BME280;46021;55.882;37.654;2023-03-22T01:48:12;99001.88;;;3.11;81.45
50672;BME280;46021;55.882;37.654;2023-03-22T01:50:44;99007.09;;;3.08;81.78
50672;BME280;46021;55.882;37.654;2023-03-22T01:53:13;99010.50;;;3.10;80.40
50672;BME280;46021;55.882;37.654;2023-03-22T01:55:45;99013.91;;;3.12;80.90
50672;BME280;46021;55.882;37.654;2023-03-22T01:58:19;99017.31;;;3.11;80.11
50672;BME280;46021;55.882;37.654;2023-03-22T02:00:54;99014.03;;;3.00;81.40
50672;BME280;46021;55.882;37.654;2023-03-22T02:03:47;99019.13;;;3.06;80.63
50672;BME280;46021;55.882;37.654;2023-03-22T02:06:16;99026.88;;;3.05;81.29
50672;BME280;46021;55.882;37.654;2023-03-22T02:08:44;99008.84;;;3.03;80.36
50672;BME280;46021;55.882;37.654;2023-03-22T02:11:16;99025.97;;;3.07;80.48
50672;BME280;46021;55.882;37.654;2023-03-22T02:14:07;99027.63;;;3.11;80.80
50672;BME280;46021;55.882;37.654;2023-03-22T02:17:27;99030.25;;;3.08;80.44
50672;BME280;46021;55.882;37.654;2023-03-22T02:23:34;99036.25;;;3.10;81.01
50672;BME280;46021;55.882;37.654;2023-03-22T02:29:23;99044.00;;;3.07;80.99
50672;BME280;46021;55.882;37.654;2023-03-22T02:41:13;99051.78;;;3.01;80.61
50672;BME280;46021;55.882;37.654;2023-03-22T02:43:54;99050.88;;;3.05;80.25
50672;BME280;46021;55.882;37.654;2023-03-22T02:46:28;99062.13;;;2.98;80.65
50672;BME280;46021;55.882;37.654;2023-03-22T02:49:02;99067.25;;;2.98;80.20
50672;BME280;46021;55.882;37.654;2023-03-22T02:51:37;99070.66;;;3.00;79.81
50672;BME280;46021;55.882;37.654;2023-03-22T02:54:10;99060.53;;;2.88;80.50
50672;BME280;46021;55.882;37.654;2023-03-22T02:56:43;99058.75;;;2.93;80.01
50672;BME280;46021;55.882;37.654;2023-03-22T02:59:16;99066.41;;;3.01;79.67
50672;BME280;46021;55.882;37.654;2023-03-22T03:01:48;99064.66;;;3.03;79.51
50672;BME280;46021;55.882;37.654;2023-03-22T03:04:19;99072.31;;;3.07;79.28
50672;BME280;46021;55.882;37.654;2023-03-22T03:06:50;99065.47;;;3.06;79.17
50672;BME280;46021;55.882;37.654;2023-03-22T03:09:18;99062.94;;;3.02;78.80
50672;BME280;46021;55.882;37.654;2023-03-22T03:11:49;99065.47;;;3.06;78.73
50672;BME280;46021;55.882;37.654;2023-03-22T03:14:25;99081.88;;;2.98;78.70
50672;BME280;46021;55.882;37.654;2023-03-22T03:17:05;99083.59;;;2.97;79.04
50672;BME280;46021;55.882;37.654;2023-03-22T03:19:41;99086.16;;;2.99;78.99
50672;BME280;46021;55.882;37.654;2023-03-22T03:22:24;99089.56;;;2.99;78.86
50672;BME280;46021;55.882;37.654;2023-03-22T03:25:00;99093.00;;;2.98;78.67
50672;BME280;46021;55.882;37.654;2023-03-22T03:27:36;99097.22;;;3.05;77.92
50672;BME280;46021;55.882;37.654;2023-03-22T03:30:10;99104.94;;;3.05;78.42
50672;BME280;46021;55.882;37.654;2023-03-22T03:32:41;99106.69;;;3.02;78.26
50672;BME280;46021;55.882;37.654;2023-03-22T03:35:13;99115.25;;;3.05;78.29
50672;BME280;46021;55.882;37.654;2023-03-22T03:37:50;99129.88;;;3.02;78.09
50672;BME280;46021;55.882;37.654;2023-03-22T03:40:21;99122.19;;;2.99;78.39
50672;BME280;46021;55.882;37.654;2023-03-22T03:42:52;99129.06;;;2.98;77.82
50672;BME280;46021;55.882;37.654;2023-03-22T03:45:23;99136.78;;;2.98;77.74
50672;BME280;46021;55.882;37.654;2023-03-22T03:47:53;99140.25;;;2.92;77.83
50672;BME280;46021;55.882;37.654;2023-03-22T03:50:24;99148.00;;;2.91;77.65
50672;BME280;46021;55.882;37.654;2023-03-22T03:52:52;99157.53;;;2.83;77.74
50672;BME280;46021;55.882;37.654;2023-03-22T03:55:21;99156.75;;;2.75;77.70
50672;BME280;46021;55.882;37.654;2023-03-22T03:57:48;99159.34;;;2.70;77.56
50672;BME280;46021;55.882;37.654;2023-03-22T04:00:17;99168.84;;;2.63;76.42
50672;BME280;46021;55.882;37.654;2023-03-22T04:03:11;99165.50;;;2.52;77.34
50672;BME280;46021;55.882;37.654;2023-03-22T04:05:52;99171.53;;;2.46;78.65
50672;BME280;46021;55.882;37.654;2023-03-22T04:08:20;99179.25;;;2.48;77.51
50672;BME280;46021;55.882;37.654;2023-03-22T04:10:48;99173.28;;;2.40;77.36
50672;BME280;46021;55.882;37.654;2023-03-22T04:13:17;99175.91;;;2.33;77.37
50672;BME280;46021;55.882;37.654;2023-03-22T04:15:51;99179.31;;;2.40;77.31
50672;BME280;46021;55.882;37.654;2023-03-22T04:18:19;99177.63;;;2.34;77.31
50672;BME280;46021;55.882;37.654;2023-03-22T04:20:47;99188.78;;;2.33;77.59
50672;BME280;46021;55.882;37.654;2023-03-22T04:23:19;99189.66;;;2.26;77.62
50672;BME280;46021;55.882;37.654;2023-03-22T04:25:47;99187.13;;;2.23;77.58
50672;BME280;46021;55.882;37.654;2023-03-22T04:28:20;99187.09;;;2.25;77.27
50672;BME280;46021;55.882;37.654;2023-03-22T04:30:50;99189.72;;;2.22;77.52
50672;BME280;46021;55.882;37.654;2023-03-22T04:33:35;99198.22;;;2.31;77.19
50672;BME280;46021;55.882;37.654;2023-03-22T04:36:22;99198.25;;;2.25;76.95
50672;BME280;46021;55.882;37.654;2023-03-22T04:39:25;99212.84;;;2.20;76.51
50672;BME280;46021;55.882;37.654;2023-03-22T04:42:24;99218.94;;;2.10;76.38
50672;BME280;46021;55.882;37.654;2023-03-22T04:45:12;99220.66;;;2.05;77.14
50672;BME280;46021;55.882;37.654;2023-03-22T04:47:44;99220.66;;;2.05;76.56
50672;BME280;46021;55.882;37.654;2023-03-22T04:50:14;99224.06;;;2.04;76.91
50672;BME280;46021;55.882;37.654;2023-03-22T04:52:49;99232.66;;;1.97;76.57
50672;BME280;46021;55.882;37.654;2023-03-22T04:55:16;99229.25;;;1.98;76.02
50672;BME280;46021;55.882;37.654;2023-03-22T04:57:44;99240.44;;;1.86;76.17
50672;BME280;46021;55.882;37.654;2023-03-22T05:00:12;99219.03;;;1.85;76.15
50672;BME280;46021;55.882;37.654;2023-03-22T05:02:41;99243.81;;;1.99;76.52
50672;BME280;46021;55.882;37.654;2023-03-22T05:05:18;99226.66;;;2.02;75.71
50672;BME280;46021;55.882;37.654;2023-03-22T05:07:47;99227.50;;;2.06;76.00
50672;BME280;46021;55.882;37.654;2023-03-22T05:10:14;99236.91;;;2.10;76.26
50672;BME280;46021;55.882;37.654;2023-03-22T05:12:41;99236.03;;;2.14;75.83
50672;BME280;46021;55.882;37.654;2023-03-22T05:15:30;99243.72;;;2.22;75.65
50672;BME280;46021;55.882;37.654;2023-03-22T05:18:00;99245.34;;;2.35;75.32
50672;BME280;46021;55.882;37.654;2023-03-22T05:20:29;99252.19;;;2.38;74.81
50672;BME280;46021;55.882;37.654;2023-03-22T05:23:29;99234.22;;;2.28;74.63
50672;BME280;46021;55.882;37.654;2023-03-22T05:25:56;99253.91;;;2.37;75.11
50672;BME280;46021;55.882;37.654;2023-03-22T05:28:26;99263.34;;;2.37;74.50
50672;BME280;46021;55.882;37.654;2023-03-22T05:31:07;99271.06;;;2.33;74.22
50672;BME280;46021;55.882;37.654;2023-03-22T05:33:47;99268.59;;;2.20;74.25
50672;BME280;46021;55.882;37.654;2023-03-22T05:36:20;99288.31;;;2.16;74.06
50672;BME280;46021;55.882;37.654;2023-03-22T05:39:11;99289.16;;;2.18;74.19
50672;BME280;46021;55.882;37.654;2023-03-22T05:41:41;99296.03;;;2.11;74.25
50672;BME280;46021;55.882;37.654;2023-03-22T05:44:08;99296.06;;;2.04;74.00
50672;BME280;46021;55.882;37.654;2023-03-22T05:46:38;99300.38;;;1.95;74.00
50672;BME280;46021;55.882;37.654;2023-03-22T05:49:31;99315.78;;;2.00;74.12
50672;BME280;46021;55.882;37.654;2023-03-22T05:52:01;99313.22;;;1.92;74.16
50672;BME280;46021;55.882;37.654;2023-03-22T05:54:47;99318.38;;;1.92;74.10
50672;BME280;46021;55.882;37.654;2023-03-22T05:57:14;99326.94;;;1.88;73.77
50672;BME280;46021;55.882;37.654;2023-03-22T05:59:41;99318.41;;;1.77;74.11
50672;BME280;46021;55.882;37.654;2023-03-22T06:02:15;99330.41;;;1.73;73.59
50672;BME280;46021;55.882;37.654;2023-03-22T06:04:43;99327.00;;;1.64;74.11
50672;BME280;46021;55.882;37.654;2023-03-22T06:07:15;99325.28;;;1.66;73.14
50672;BME280;46021;55.882;37.654;2023-03-22T06:09:50;99329.56;;;1.61;73.46
50672;BME280;46021;55.882;37.654;2023-03-22T06:12:20;99331.28;;;1.68;73.39
50672;BME280;46021;55.882;37.654;2023-03-22T06:14:56;99325.31;;;1.61;73.49
50672;BME280;46021;55.882;37.654;2023-03-22T06:17:55;99327.84;;;1.70;73.08
50672;BME280;46021;55.882;37.654;2023-03-22T06:20:26;99323.53;;;1.77;72.68
50672;BME280;46021;55.882;37.654;2023-03-22T06:23:00;99322.69;;;1.86;73.45
50672;BME280;46021;55.882;37.654;2023-03-22T06:25:28;99329.53;;;1.93;72.76
50672;BME280;46021;55.882;37.654;2023-03-22T06:27:55;99320.06;;;2.04;73.06
50672;BME280;46021;55.882;37.654;2023-03-22T06:30:23;99323.44;;;2.23;72.99
50672;BME280;46021;55.882;37.654;2023-03-22T06:33:08;99319.13;;;2.24;72.59
50672;BME280;46021;55.882;37.654;2023-03-22T06:35:39;99314.84;;;2.29;71.98
50672;BME280;46021;55.882;37.654;2023-03-22T06:38:11;99318.22;;;2.39;71.94
50672;BME280;46021;55.882;37.654;2023-03-22T06:40:38;99328.38;;;2.59;71.53
50672;BME280;46021;55.882;37.654;2023-03-22T06:43:05;99332.63;;;2.70;71.09
50672;BME280;46021;55.882;37.654;2023-03-22T06:45:34;99336.06;;;2.71;70.76
50672;BME280;46021;55.882;37.654;2023-03-22T06:48:03;99326.69;;;2.53;70.80
50672;BME280;46021;55.882;37.654;2023-03-22T06:50:50;99325.84;;;2.54;70.81
50672;BME280;46021;55.882;37.654;2023-03-22T06:53:25;99331.00;;;2.52;70.86
50672;BME280;46021;55.882;37.654;2023-03-22T06:55:53;99332.69;;;2.61;70.65
50672;BME280;46021;55.882;37.654;2023-03-22T06:58:22;99338.72;;;2.54;70.07
50672;BME280;46021;55.882;37.654;2023-03-22T07:00:49;99327.59;;;2.49;69.52
50672;BME280;46021;55.882;37.654;2023-03-22T07:03:18;99335.31;;;2.52;69.91
50672;BME280;46021;55.882;37.654;2023-03-22T07:05:49;99337.03;;;2.50;69.81
50672;BME280;46021;55.882;37.654;2023-03-22T07:08:17;99338.72;;;2.51;69.06
50672;BME280;46021;55.882;37.654;2023-03-22T07:10:50;99347.19;;;2.75;69.68
50672;BME280;46021;55.882;37.654;2023-03-22T07:13:20;99346.25;;;2.89;69.09
50672;BME280;46021;55.882;37.654;2023-03-22T07:15:52;99345.31;;;3.01;68.47
50672;BME280;46021;55.882;37.654;2023-03-22T07:18:39;99348.69;;;3.09;67.82
50672;BME280;46021;55.882;37.654;2023-03-22T07:21:06;99336.63;;;3.15;67.13
50672;BME280;46021;55.882;37.654;2023-03-22T07:23:36;99337.34;;;3.35;67.59
50672;BME280;46021;55.882;37.654;2023-03-22T07:26:09;99341.47;;;3.51;66.90
50672;BME280;46021;55.882;37.654;2023-03-22T07:28:38;99343.34;;;3.37;64.68
50672;BME280;46021;55.882;37.654;2023-03-22T07:31:09;99346.88;;;3.19;64.62
50672;BME280;46021;55.882;37.654;2023-03-22T07:33:51;99338.50;;;2.91;64.55
50672;BME280;46021;55.882;37.654;2023-03-22T07:36:21;99345.31;;;3.01;64.32
50672;BME280;46021;55.882;37.654;2023-03-22T07:38:51;99364.13;;;3.11;64.67
50672;BME280;46021;55.882;37.654;2023-03-22T07:41:27;99362.44;;;3.05;63.55
50672;BME280;46021;55.882;37.654;2023-03-22T07:44:15;99355.63;;;2.98;63.31
50672;BME280;46021;55.882;37.654;2023-03-22T07:46:49;99360.75;;;3.01;63.64
50672;BME280;46021;55.882;37.654;2023-03-22T07:49:24;99363.34;;;3.00;63.75
50672;BME280;46021;55.882;37.654;2023-03-22T07:52:11;99357.19;;;3.21;63.95
50672;BME280;46021;55.882;37.654;2023-03-22T07:54:39;99350.22;;;3.32;64.31
50672;BME280;46021;55.882;37.654;2023-03-22T07:57:09;99354.53;;;3.33;61.81
50672;BME280;46021;55.882;37.654;2023-03-22T07:59:42;99352.75;;;3.40;62.75
50672;BME280;46021;55.882;37.654;2023-03-22T08:02:11;99351.06;;;3.37;62.99
50672;BME280;46021;55.882;37.654;2023-03-22T08:04:44;99357.81;;;3.52;62.35
50672;BME280;46021;55.882;37.654;2023-03-22T08:07:29;99351.78;;;3.55;61.67
50672;BME280;46021;55.882;37.654;2023-03-22T08:09:57;99363.66;;;3.71;62.30
50672;BME280;46021;55.882;37.654;2023-03-22T08:12:26;99352.47;;;3.74;61.73
50672;BME280;46021;55.882;37.654;2023-03-22T08:15:02;99360.00;;;3.94;62.02
50672;BME280;46021;55.882;37.654;2023-03-22T08:17:31;99350.38;;;4.11;61.74
50672;BME280;46021;55.882;37.654;2023-03-22T08:19:58;99362.06;;;4.41;61.70
50672;BME280;46021;55.882;37.654;2023-03-22T08:22:41;99361.75;;;4.64;60.16
50672;BME280;46021;55.882;37.654;2023-03-22T08:25:28;99362.56;;;4.69;59.60
50672;BME280;46021;55.882;37.654;2023-03-22T08:28:06;99363.28;;;4.81;59.85
50672;BME280;46021;55.882;37.654;2023-03-22T08:30:33;99356.34;;;4.83;58.40
50672;BME280;46021;55.882;37.654;2023-03-22T08:33:02;99367.50;;;4.88;59.22
50672;BME280;46021;55.882;37.654;2023-03-22T08:35:29;99372.97;;;4.63;57.88
50672;BME280;46021;55.882;37.654;2023-03-22T08:37:57;99366.09;;;4.62;57.50
50672;BME280;46021;55.882;37.654;2023-03-22T08:40:31;99362.31;;;4.88;58.69
50672;BME280;46021;55.882;37.654;2023-03-22T08:43:01;99356.25;;;4.91;57.71
50672;BME280;46021;55.882;37.654;2023-03-22T08:45:30;99357.88;;;4.99;56.23
50672;BME280;46021;55.882;37.654;2023-03-22T08:48:06;99367.28;;;5.03;57.37
50672;BME280;46021;55.882;37.654;2023-03-22T08:50:49;99364.47;;;5.19;57.50
50672;BME280;46021;55.882;37.654;2023-03-22T08:53:27;99364.91;;;5.45;57.43
50672;BME280;46021;55.882;37.654;2023-03-22T08:56:11;99357.34;;;6.31;57.06
50672;BME280;46021;55.882;37.654;2023-03-22T08:58:57;99346.53;;;8.32;57.08
50672;BME280;46021;55.882;37.654;2023-03-22T09:01:36;99342.28;;;10.46;51.52
50672;BME280;46021;55.882;37.654;2023-03-22T09:04:05;99347.44;;;12.02;49.04
50672;BME280;46021;55.882;37.654;2023-03-22T09:06:32;99345.69;;;13.36;47.30
50672;BME280;46021;55.882;37.654;2023-03-22T09:08:59;99337.63;;;15.09;45.29
50672;BME280;46021;55.882;37.654;2023-03-22T09:11:27;99338.31;;;16.61;40.94
50672;BME280;46021;55.882;37.654;2023-03-22T09:13:54;99342.81;;;17.56;38.00
50672;BME280;46021;55.882;37.654;2023-03-22T09:16:21;99335.03;;;16.14;35.09
50672;BME280;46021;55.882;37.654;2023-03-22T09:18:49;99336.28;;;16.37;36.68
50672;BME280;46021;55.882;37.654;2023-03-22T09:21:20;99348.03;;;16.60;37.77
50672;BME280;46021;55.882;37.654;2023-03-22T09:23:55;99346.28;;;15.41;35.40
50672;BME280;46021;55.882;37.654;2023-03-22T09:26:32;99347.09;;;14.79;35.98
50672;BME280;46021;55.882;37.654;2023-03-22T09:28:59;99349.59;;;13.81;37.65
50672;BME280;46021;55.882;37.654;2023-03-22T09:31:27;99359.06;;;12.93;38.51
50672;BME280;46021;55.882;37.654;2023-03-22T09:34:06;99359.19;;;13.26;39.02
50672;BME280;46021;55.882;37.654;2023-03-22T09:36:34;99362.88;;;13.41;38.36
50672;BME280;46021;55.882;37.654;2023-03-22T09:39:02;99354.44;;;13.54;37.97
50672;BME280;46021;55.882;37.654;2023-03-22T09:41:35;99361.28;;;13.91;38.22
50672;BME280;46021;55.882;37.654;2023-03-22T09:44:05;99361.75;;;14.17;37.21
50672;BME280;46021;55.882;37.654;2023-03-22T09:46:36;99366.84;;;13.85;37.09
50672;BME280;46021;55.882;37.654;2023-03-22T09:49:09;99365.16;;;12.35;38.00
50672;BME280;46021;55.882;37.654;2023-03-22T09:51:39;99359.66;;;11.59;39.33
50672;BME280;46021;55.882;37.654;2023-03-22T09:54:13;99361.84;;;11.04;40.27
50672;BME280;46021;55.882;37.654;2023-03-22T09:56:45;99364.06;;;10.45;41.34
50672;BME280;46021;55.882;37.654;2023-03-22T09:59:16;99358.31;;;10.36;43.34
50672;BME280;46021;55.882;37.654;2023-03-22T10:01:50;99365.72;;;11.38;42.58
50672;BME280;46021;55.882;37.654;2023-03-22T10:04:39;99358.41;;;12.69;40.29
50672;BME280;46021;55.882;37.654;2023-03-22T10:07:20;99357.44;;;13.81;38.41
50672;BME280;46021;55.882;37.654;2023-03-22T10:09:59;99355.38;;;13.88;36.27
50672;BME280;46021;55.882;37.654;2023-03-22T10:12:33;99355.91;;;13.04;36.75
50672;BME280;46021;55.882;37.654;2023-03-22T10:15:07;99361.13;;;12.07;37.63
50672;BME280;46021;55.882;37.654;2023-03-22T10:17:38;99357.53;;;11.47;38.83
50672;BME280;46021;55.882;37.654;2023-03-22T10:20:18;99353.19;;;10.34;40.45
50672;BME280;46021;55.882;37.654;2023-03-22T10:22:50;99354.47;;;9.70;42.93
50672;BME280;46021;55.882;37.654;2023-03-22T10:25:21;99361.00;;;10.07;42.08
50672;BME280;46021;55.882;37.654;2023-03-22T10:27:50;99356.16;;;9.98;41.36
50672;BME280;46021;55.882;37.654;2023-03-22T10:30:20;99347.56;;;10.20;42.52
50672;BME280;46021;55.882;37.654;2023-03-22T10:32:51;99356.28;;;11.13;41.70
50672;BME280;46021;55.882;37.654;2023-03-22T10:35:22;99351.44;;;12.30;40.36
50672;BME280;46021;55.882;37.654;2023-03-22T10:37:50;99356.06;;;13.74;39.25
50672;BME280;46021;55.882;37.654;2023-03-22T10:40:20;99342.44;;;14.85;37.06
50672;BME280;46021;55.882;37.654;2023-03-22T10:42:52;99352.84;;;15.94;35.24
50672;BME280;46021;55.882;37.654;2023-03-22T10:45:20;99348.13;;;17.14;34.64
50672;BME280;46021;55.882;37.654;2023-03-22T10:47:55;99351.56;;;18.09;32.45
50672;BME280;46021;55.882;37.654;2023-03-22T10:50:31;99347.13;;;18.36;31.48
50672;BME280;46021;55.882;37.654;2023-03-22T10:53:02;99345.94;;;18.53;30.76
50672;BME280;46021;55.882;37.654;2023-03-22T10:55:31;99348.94;;;17.69;30.85
50672;BME280;46021;55.882;37.654;2023-03-22T10:58:10;99343.03;;;16.12;31.29
50672;BME280;46021;55.882;37.654;2023-03-22T11:00:42;99350.88;;;15.37;32.73
50672;BME280;46021;55.882;37.654;2023-03-22T11:03:24;99345.09;;;15.31;33.63
50672;BME280;46021;55.882;37.654;2023-03-22T11:06:02;99344.56;;;15.56;33.41
50672;BME280;46021;55.882;37.654;2023-03-22T11:08:38;99351.53;;;15.41;32.91
50672;BME280;46021;55.882;37.654;2023-03-22T11:11:13;99346.44;;;14.42;33.78
50672;BME280;46021;55.882;37.654;2023-03-22T11:13:41;99357.50;;;13.44;34.84
50672;BME280;46021;55.882;37.654;2023-03-22T11:16:10;99363.09;;;12.02;36.28
50672;BME280;46021;55.882;37.654;2023-03-22T11:18:40;99357.16;;;10.19;38.84
50672;BME280;46021;55.882;37.654;2023-03-22T11:21:11;99361.63;;;9.37;40.04
50672;BME280;46021;55.882;37.654;2023-03-22T11:23:40;99355.31;;;8.89;40.68
50672;BME280;46021;55.882;37.654;2023-03-22T11:26:09;99350.84;;;8.65;40.84
50672;BME280;46021;55.882;37.654;2023-03-22T11:28:41;99346.19;;;8.13;42.91
50672;BME280;46021;55.882;37.654;2023-03-22T11:31:09;99357.88;;;7.97;43.19
50672;BME280;46021;55.882;37.654;2023-03-22T11:33:37;99351.00;;;7.96;43.06
50672;BME280;46021;55.882;37.654;2023-03-22T11:36:21;99344.09;;;7.95;43.55
50672;BME280;46021;55.882;37.654;2023-03-22T11:38:55;99348.91;;;8.09;43.28
50672;BME280;46021;55.882;37.654;2023-03-22T11:41:25;99357.75;;;7.69;45.33
50672;BME280;46021;55.882;37.654;2023-03-22T11:43:55;99347.91;;;7.47;45.78
50672;BME280;46021;55.882;37.654;2023-03-22T11:46:23;99337.50;;;7.13;45.82
50672;BME280;46021;55.882;37.654;2023-03-22T11:48:51;99345.91;;;6.85;48.13
50672;BME280;46021;55.882;37.654;2023-03-22T11:51:27;99334.91;;;6.74;47.67
50672;BME280;46021;55.882;37.654;2023-03-22T11:54:07;99354.34;;;6.93;47.36
50672;BME280;46021;55.882;37.654;2023-03-22T11:56:40;99353.38;;;6.97;47.53
50672;BME280;46021;55.882;37.654;2023-03-22T11:59:11;99348.94;;;7.02;48.02
50672;BME280;46021;55.882;37.654;2023-03-22T12:01:42;99355.88;;;7.02;47.85
50672;BME280;46021;55.882;37.654;2023-03-22T12:04:15;99351.41;;;7.09;47.90
50672;BME280;46021;55.882;37.654;2023-03-22T12:06:44;99341.53;;;6.87;48.38
50672;BME280;46021;55.882;37.654;2023-03-22T12:09:23;99336.53;;;6.78;49.11
50672;BME280;46021;55.882;37.654;2023-03-22T12:11:54;99349.34;;;6.84;49.01
50672;BME280;46021;55.882;37.654;2023-03-22T12:14:25;99340.38;;;6.99;48.81
50672;BME280;46021;55.882;37.654;2023-03-22T12:16:56;99346.78;;;7.21;48.74
50672;BME280;46021;55.882;37.654;2023-03-22T12:19:40;99334.22;;;7.75;49.27
50672;BME280;46021;55.882;37.654;2023-03-22T12:22:15;99339.16;;;8.50;48.29
50672;BME280;46021;55.882;37.654;2023-03-22T12:24:44;99335.94;;;9.00;46.42
50672;BME280;46021;55.882;37.654;2023-03-22T12:27:15;99328.47;;;9.17;46.22
50672;BME280;46021;55.882;37.654;2023-03-22T12:29:48;99333.47;;;9.23;46.02
50672;BME280;46021;55.882;37.654;2023-03-22T12:32:20;99341.31;;;9.22;45.25
50672;BME280;46021;55.882;37.654;2023-03-22T12:34:50;99332.88;;;8.87;45.69
50672;BME280;46021;55.882;37.654;2023-03-22T12:37:23;99323.50;;;8.53;46.84
50672;BME280;46021;55.882;37.654;2023-03-22T12:39:53;99323.72;;;8.12;47.44
50672;BME280;46021;55.882;37.654;2023-03-22T12:42:24;99327.97;;;7.84;47.79
50672;BME280;46021;55.882;37.654;2023-03-22T12:44:56;99320.03;;;7.21;48.88
50672;BME280;46021;55.882;37.654;2023-03-22T12:47:29;99329.19;;;6.98;49.45
50672;BME280;46021;55.882;37.654;2023-03-22T12:50:00;99326.78;;;6.91;49.25
50672;BME280;46021;55.882;37.654;2023-03-22T12:52:36;99328.56;;;6.87;49.76
50672;BME280;46021;55.882;37.654;2023-03-22T12:55:04;99315.78;;;6.79;49.79
50672;BME280;46021;55.882;37.654;2023-03-22T12:57:35;99324.97;;;6.54;50.78
50672;BME280;46021;55.882;37.654;2023-03-22T13:00:06;99325.63;;;6.21;52.22
50672;BME280;46021;55.882;37.654;2023-03-22T13:02:47;99332.59;;;6.18;53.35
50672;BME280;46021;55.882;37.654;2023-03-22T13:05:16;99328.84;;;6.33;52.42
50672;BME280;46021;55.882;37.654;2023-03-22T13:07:53;99327.22;;;6.29;54.19
50672;BME280;46021;55.882;37.654;2023-03-22T13:13:42;99332.84;;;6.05;54.63
50672;BME280;46021;55.882;37.654;2023-03-22T13:16:17;99333.69;;;6.08;54.26
50672;BME280;46021;55.882;37.654;2023-03-22T13:19:01;99336.25;;;6.09;54.33
50672;BME280;46021;55.882;37.654;2023-03-22T13:21:31;99336.28;;;6.06;53.54
50672;BME280;46021;55.882;37.654;2023-03-22T13:24:20;99317.84;;;6.23;53.68
50672;BME280;46021;55.882;37.654;2023-03-22T13:26:49;99319.28;;;6.36;53.39
50672;BME280;46021;55.882;37.654;2023-03-22T13:29:19;99320.97;;;6.39;52.95
50672;BME280;46021;55.882;37.654;2023-03-22T13:31:55;99325.22;;;6.43;52.66
50672;BME280;46021;55.882;37.654;2023-03-22T13:34:31;99322.69;;;6.38;53.06
50672;BME280;46021;55.882;37.654;2023-03-22T13:37:02;99312.78;;;6.18;52.79
50672;BME280;46021;55.882;37.654;2023-03-22T13:39:36;99325.13;;;6.04;53.87
50672;BME280;46021;55.882;37.654;2023-03-22T13:42:15;99327.91;;;5.92;53.18
50672;BME280;46021;55.882;37.654;2023-03-22T13:44:51;99329.84;;;5.80;54.28
50672;BME280;46021;55.882;37.654;2023-03-22T13:47:30;99324.31;;;5.52;55.34
50672;BME280;46021;55.882;37.654;2023-03-22T13:50:01;99326.78;;;5.57;54.86